Terminal Aerodrome Forecast
Issued by NWS

Home | Current Version | Previous Version | Graphics & Text | Print | Product List | Glossary On
Versions: 1 2 3 4 5 6 7 8 9 10 11 12 13 14 15 16
000
FTUS43 KICT 190534
TAFHUT
TAF
KHUT 190534Z 1906/2006 25007KT P6SM SCT120 BKN250
     FM191000 31007KT P6SM BKN120 BKN250
     FM191500 34011KT P6SM SCT100 BKN250
     FM200000 VRB03KT P6SM SCT250=

USA.gov is the U.S. government's official web portal to all federal, state and local government web resources and services.